Time;durP1;ratioP1;P1;durP2;ratioP2;P2;SDS_P1;SDS_P2;PMS_P1;PMS_P2;Temp;Humidity;BMP_temperature;BMP_pressure;BME280_temperature;BME280_humidity;BME280_pressure;Samples;Min_cycle;Max_cycle;Signal;HPM_P1;HPM_P2
2022/12/26 00:01:25;;;;;;;11.98;4.72;;;;;;;10.84;100.00;100007.19;5199370;28;20041;-76
2022/12/26 00:03:56;;;;;;;12.02;5.22;;;;;;;10.78;100.00;100002.22;5201331;28;20025;-74
2022/12/26 00:06:28;;;;;;;9.60;5.03;;;;;;;10.74;100.00;100003.28;5203275;28;20044;-75
2022/12/26 00:09:01;;;;;;;8.60;5.05;;;;;;;10.74;100.00;99992.81;5203420;28;20037;-75
2022/12/26 00:11:32;;;;;;;8.63;4.88;;;;;;;10.69;100.00;99989.59;5202750;28;20044;-74
2022/12/26 00:14:08;;;;;;;9.05;5.53;;;;;;;10.64;100.00;99981.09;5202716;28;20025;-74
2022/12/26 00:16:41;;;;;;;11.40;6.55;;;;;;;10.59;100.00;99975.22;5202531;28;20033;-75
2022/12/26 00:19:12;;;;;;;10.93;6.10;;;;;;;10.55;100.00;99965.84;5201679;28;20026;-74
2022/12/26 00:21:42;;;;;;;13.10;7.00;;;;;;;10.52;100.00;99982.50;5202989;28;20478;-74
2022/12/26 00:24:12;;;;;;;14.07;7.40;;;;;;;10.46;100.00;99980.16;5202775;28;20079;-74
2022/12/26 00:26:43;;;;;;;15.30;7.90;;;;;;;10.48;100.00;99974.88;5201758;28;20060;-74
2022/12/26 00:29:13;;;;;;;18.67;8.00;;;;;;;10.59;100.00;99988.28;5202060;28;20036;-75
2022/12/26 00:31:43;;;;;;;12.82;7.57;;;;;;;10.48;100.00;99987.94;5202480;28;20043;-74
2022/12/26 00:34:14;;;;;;;17.35;7.82;;;;;;;10.54;100.00;99979.81;5202001;28;20021;-74
2022/12/26 00:36:44;;;;;;;17.33;7.95;;;;;;;10.45;100.00;99986.31;5200261;28;20029;-76
2022/12/26 00:39:16;;;;;;;15.75;8.43;;;;;;;10.44;100.00;99992.44;5200985;28;20052;-74
2022/12/26 00:41:46;;;;;;;14.52;8.38;;;;;;;10.48;100.00;99996.59;5200918;28;20037;-74
2022/12/26 00:44:17;;;;;;;15.45;8.20;;;;;;;10.52;100.00;99999.94;5202072;28;20435;-75
2022/12/26 00:46:47;;;;;;;18.35;8.45;;;;;;;10.49;100.00;99997.47;5201283;28;20159;-75
2022/12/26 00:49:17;;;;;;;13.82;7.90;;;;;;;10.54;100.00;100000.72;5202827;28;20040;-74
2022/12/26 00:51:47;;;;;;;16.75;8.15;;;;;;;10.50;100.00;99999.16;5202339;28;20033;-75
2022/12/26 00:54:18;;;;;;;16.73;8.43;;;;;;;10.48;100.00;99993.16;5202892;28;20033;-74
2022/12/26 00:56:48;;;;;;;14.80;8.07;;;;;;;10.49;100.00;99998.31;5200721;28;20028;-73
2022/12/26 00:59:18;;;;;;;15.90;7.55;;;;;;;10.50;100.00;99993.94;5202276;28;20395;-74
2022/12/26 01:01:49;;;;;;;17.85;7.60;;;;;;;10.42;100.00;99991.66;5203014;28;20120;-74
2022/12/26 01:04:19;;;;;;;11.13;6.95;;;;;;;10.43;100.00;100000.34;5202599;28;20041;-74
2022/12/26 01:06:49;;;;;;;13.25;6.57;;;;;;;10.39;100.00;99993.56;5201262;28;20022;-74
2022/12/26 01:09:19;;;;;;;15.40;6.60;;;;;;;10.36;100.00;99991.09;5202559;28;20040;-73
2022/12/26 01:11:50;;;;;;;11.55;6.00;;;;;;;10.30;100.00;99991.34;5200927;28;20033;-74
2022/12/26 01:14:20;;;;;;;11.63;6.03;;;;;;;10.26;100.00;99995.00;5201423;28;20051;-74
2022/12/26 01:16:50;;;;;;;12.63;6.50;;;;;;;10.26;100.00;99989.78;5200955;28;20075;-74
2022/12/26 01:19:20;;;;;;;8.73;5.50;;;;;;;10.33;100.00;99986.84;5204804;28;20029;-74
2022/12/26 01:21:51;;;;;;;8.35;5.18;;;;;;;10.37;100.00;99987.56;5201045;28;20033;-74
2022/12/26 01:24:21;;;;;;;10.18;4.50;;;;;;;10.32;100.00;99995.59;5189192;28;20022;-74
2022/12/26 01:26:51;;;;;;;9.95;4.32;;;;;;;10.32;100.00;99998.19;5195206;28;20125;-74
2022/12/26 01:29:22;;;;;;;9.38;4.55;;;;;;;10.25;100.00;99990.69;5199408;28;20104;-74
2022/12/26 01:31:52;;;;;;;9.20;4.60;;;;;;;10.24;100.00;99986.38;5197995;28;20269;-74
2022/12/26 01:34:22;;;;;;;8.68;4.72;;;;;;;10.24;100.00;99982.03;5200210;28;20554;-75
2022/12/26 01:36:53;;;;;;;7.45;4.13;;;;;;;10.27;100.00;99974.06;5198206;28;20017;-74
2022/12/26 01:39:23;;;;;;;8.20;4.20;;;;;;;10.24;100.00;99981.16;5200094;28;20113;-73
2022/12/26 01:41:53;;;;;;;8.73;4.15;;;;;;;10.23;100.00;99980.34;5197716;28;20036;-74
2022/12/26 01:44:51;;;;;;;7.15;3.78;;;;;;;10.24;100.00;99982.03;5200270;28;20642;-74
2022/12/26 01:47:24;;;;;;;6.65;3.75;;;;;;;10.15;100.00;99979.81;5197123;28;20032;-74
2022/12/26 01:49:55;;;;;;;7.28;3.55;;;;;;;10.15;100.00;99981.59;5188882;28;20023;-73
2022/12/26 01:52:34;;;;;;;6.80;3.83;;;;;;;10.06;100.00;99977.59;5194813;28;20402;-74
2022/12/26 01:55:10;;;;;;;8.95;3.85;;;;;;;9.99;100.00;99985.72;5198021;28;20554;-73
2022/12/26 01:57:42;;;;;;;;;;;;;;;10.00;100.00;99988.25;5199376;28;20107;-74
2022/12/26 02:00:13;;;;;;;6.15;4.00;;;;;;;10.01;100.00;99989.97;5200952;28;19932;-74
2022/12/26 02:05:32;;;;;;;6.43;3.70;;;;;;;10.13;100.00;100006.91;5200640;28;20176;-75
2022/12/26 02:08:05;;;;;;;7.15;3.25;;;;;;;10.16;100.00;100009.38;5200547;28;20037;-74
2022/12/26 02:10:50;;;;;;;8.73;3.38;;;;;;;10.14;100.00;100008.59;5200833;28;20110;-74
2022/12/26 02:13:20;;;;;;;6.60;3.22;;;;;;;10.16;100.00;100009.38;5195862;28;20036;-74
2022/12/26 02:15:50;;;;;;;6.85;3.30;;;;;;;10.04;100.00;100007.28;5199930;28;20034;-74
2022/12/26 02:18:21;;;;;;;6.38;3.53;;;;;;;10.06;100.00;100002.84;5200081;28;20029;-74
2022/12/26 02:21:18;;;;;;;6.50;3.35;;;;;;;10.02;100.00;100004.72;5200794;28;20044;-74
2022/12/26 02:24:00;;;;;;;7.15;3.22;;;;;;;9.97;100.00;100021.50;5189201;28;20334;-74
2022/12/26 02:26:58;;;;;;;7.25;3.15;;;;;;;9.89;100.00;100019.19;5194303;28;20563;-74
2022/12/26 02:30:02;;;;;;;6.38;3.63;;;;;;;9.96;100.00;100011.97;5211271;28;20033;-73
2022/12/26 02:32:48;;;;;;;9.00;4.32;;;;;;;9.99;100.00;100001.38;5198310;28;20033;-74
2022/12/26 02:35:41;;;;;;;8.50;3.83;;;;;;;10.04;100.00;100004.69;5191507;28;20402;-75
2022/12/26 02:38:33;;;;;;;6.28;3.70;;;;;;;10.02;100.00;100011.72;5199875;28;20021;-74
2022/12/26 02:41:25;;;;;;;7.22;3.67;;;;;;;10.06;100.00;100013.28;5199305;28;20033;-74
2022/12/26 02:47:20;;;;;;;9.50;3.88;;;;;;;10.01;100.00;100023.06;5198100;28;20569;-74
2022/12/26 03:13:49;;;;;;;3.85;2.67;;;;;;;10.04;100.00;100012.50;5203517;28;20135;-73
2022/12/26 03:19:13;;;;;;;5.57;2.97;;;;;;;9.88;100.00;100024.47;5203162;28;20036;-74
2022/12/26 03:21:45;;;;;;;8.20;3.13;;;;;;;9.93;100.00;100027.72;5199655;28;20048;-74
2022/12/26 03:24:16;;;;;;;4.22;2.97;;;;;;;9.97;100.00;100047.59;5202927;28;20017;-73
2022/12/26 03:26:52;;;;;;;4.47;3.17;;;;;;;9.98;100.00;100046.69;5199578;28;20080;-74
2022/12/26 03:32:12;;;;;;;4.53;2.83;;;;;;;10.03;100.00;100040.34;5203922;28;20068;-74
2022/12/26 03:34:43;;;;;;;4.43;3.10;;;;;;;10.00;100.00;100039.63;5202518;28;20463;-73
2022/12/26 03:37:55;;;;;;;4.00;2.88;;;;;;;9.95;100.00;100036.34;5199580;28;20025;-74
2022/12/26 04:45:22;;;;;;;4.88;3.22;;;;;;;9.20;100.00;100068.09;5202216;28;20162;-74
2022/12/26 04:50:52;;;;;;;5.43;3.60;;;;;;;9.26;100.00;100066.09;5202654;28;20025;-74
2022/12/26 04:53:22;;;;;;;5.20;3.67;;;;;;;9.23;100.00;100058.41;5199049;28;20559;-74
2022/12/26 04:55:52;;;;;;;6.95;4.18;;;;;;;9.20;100.00;100058.53;5201147;28;20116;-74
2022/12/26 04:58:25;;;;;;;6.10;4.40;;;;;;;9.14;100.00;100058.75;5201236;28;20079;-74
2022/12/26 05:09:32;;;;;;;6.22;4.30;;;;;;;9.15;100.00;100059.59;5201976;28;20028;-74
2022/12/26 05:09:34;;;;;;;6.85;4.43;;;;;;;9.10;100.00;100064.13;5200215;28;20034;-75
2022/12/26 05:12:07;;;;;;;6.35;4.47;;;;;;;9.07;100.00;100059.03;5199362;28;20033;-74
2022/12/26 05:14:37;;;;;;;5.65;4.22;;;;;;;9.09;100.00;100062.44;5201337;28;20380;-74
2022/12/26 05:28:41;;;;;;;4.00;2.85;;;;;;;9.59;100.00;100071.75;5206463;28;19919;-74
2022/12/26 05:31:15;;;;;;;4.15;2.70;;;;;;;9.66;100.00;100076.66;5202193;28;20172;-73
2022/12/26 05:36:49;;;;;;;5.13;2.50;;;;;;;9.74;100.00;100085.06;5200620;28;20032;-73
2022/12/26 05:39:19;;;;;;;3.53;2.33;;;;;;;9.71;100.00;100092.16;5201847;28;20103;-74
2022/12/26 05:41:49;;;;;;;4.70;2.45;;;;;;;9.77;100.00;100091.91;5201710;28;20030;-74
2022/12/26 05:44:20;;;;;;;3.40;2.03;;;;;;;9.74;100.00;100103.31;5201452;28;20485;-75
2022/12/26 05:46:50;;;;;;;4.07;2.13;;;;;;;9.82;100.00;100105.63;5200900;28;20025;-74
2022/12/26 05:49:20;;;;;;;3.40;1.90;;;;;;;9.75;100.00;100107.63;5201253;28;20029;-76
2022/12/26 05:51:50;;;;;;;2.83;1.80;;;;;;;9.74;100.00;100105.94;5201521;28;20037;-74
2022/12/26 05:54:21;;;;;;;3.10;1.75;;;;;;;9.83;100.00;100100.34;5201170;28;20116;-74
2022/12/26 05:56:52;;;;;;;3.13;1.83;;;;;;;9.77;100.00;100104.94;5199346;28;20471;-74
2022/12/26 05:59:22;;;;;;;2.13;1.55;;;;;;;9.83;100.00;100115.16;5200880;28;20557;-74
2022/12/26 06:01:52;;;;;;;3.40;2.05;;;;;;;9.83;100.00;100113.38;5200926;28;20033;-74
2022/12/26 06:04:23;;;;;;;3.03;2.13;;;;;;;9.85;100.00;100118.56;5201194;28;20494;-74
2022/12/26 06:06:55;;;;;;;2.20;1.30;;;;;;;9.84;100.00;100122.06;5200819;28;20061;-75
2022/12/26 06:09:26;;;;;;;2.85;1.98;;;;;;;9.80;100.00;100123.94;5201303;28;20100;-74
2022/12/26 06:11:56;;;;;;;1.90;1.60;;;;;;;9.77;100.00;100116.25;5199610;28;20056;-74
2022/12/26 06:14:27;;;;;;;2.47;1.60;;;;;;;9.82;100.00;100124.72;5199377;28;20274;-73
2022/12/26 06:16:57;;;;;;;5.43;2.60;;;;;;;9.83;100.00;100125.59;5199669;28;20034;-74
2022/12/26 06:19:27;;;;;;;2.20;1.42;;;;;;;9.87;100.00;100127.16;5200632;28;20033;-75
2022/12/26 06:21:57;;;;;;;2.50;1.48;;;;;;;9.84;100.00;100122.06;5230803;28;20481;-74
2022/12/26 06:24:28;;;;;;;2.63;1.30;;;;;;;9.86;100.00;100123.69;5200863;28;20033;-74
2022/12/26 06:26:58;;;;;;;3.53;1.92;;;;;;;9.87;100.00;100114.97;5200525;28;20020;-74
2022/12/26 06:29:28;;;;;;;1.92;1.42;;;;;;;9.91;100.00;100113.06;5200094;28;20037;-74
2022/12/26 06:31:59;;;;;;;2.63;1.52;;;;;;;9.85;100.00;100118.56;5201037;28;20033;-75
2022/12/26 06:34:29;;;;;;;4.78;1.45;;;;;;;9.86;100.00;100118.47;5198798;28;20124;-74
2022/12/26 06:37:00;;;;;;;2.83;1.77;;;;;;;9.84;100.00;100127.28;5199050;28;20079;-74
2022/12/26 06:39:30;;;;;;;2.17;1.70;;;;;;;9.78;100.00;100135.34;5200510;28;20025;-74
2022/12/26 06:42:00;;;;;;;3.08;1.58;;;;;;;9.74;100.00;100131.16;5199889;28;20026;-74
2022/12/26 06:44:31;;;;;;;4.45;1.98;;;;;;;9.71;100.00;100126.06;5199910;28;20044;-74
2022/12/26 06:47:02;;;;;;;2.90;2.10;;;;;;;9.80;100.00;100128.34;5199468;28;20052;-74
2022/12/26 06:49:32;;;;;;;4.70;2.47;;;;;;;9.69;100.00;100126.13;5198458;28;20507;-75
2022/12/26 06:52:02;;;;;;;2.90;2.50;;;;;;;9.68;100.00;100129.63;5200339;28;20256;-74
2022/12/26 06:54:34;;;;;;;2.75;2.03;;;;;;;9.62;100.00;100116.00;5200564;28;20025;-75
2022/12/26 06:57:04;;;;;;;3.28;2.10;;;;;;;9.66;100.00;100122.81;5199241;28;20026;-74
2022/12/26 06:59:34;;;;;;;3.22;2.08;;;;;;;9.56;100.00;100132.75;5200141;28;20494;-75
2022/12/26 07:02:05;;;;;;;4.10;1.95;;;;;;;9.55;100.00;100135.41;5199930;28;20109;-74
2022/12/26 07:04:35;;;;;;;3.40;1.70;;;;;;;9.51;100.00;100150.31;5199900;28;20026;-76
2022/12/26 07:07:05;;;;;;;3.63;1.63;;;;;;;9.46;100.00;100141.81;5199659;28;20029;-75
2022/12/26 07:09:35;;;;;;;2.17;1.63;;;;;;;9.42;100.00;100147.19;5199515;28;20399;-74
2022/12/26 07:12:06;;;;;;;3.17;1.90;;;;;;;9.32;100.00;100151.09;5198748;28;20048;-74
2022/12/26 07:14:36;;;;;;;3.80;2.20;;;;;;;9.29;100.00;100148.59;5199261;28;20498;-74
2022/12/26 07:17:08;;;;;;;10.38;4.68;;;;;;;9.31;100.00;100142.38;5199012;28;20033;-74
2022/12/26 07:19:39;;;;;;;6.45;4.10;;;;;;;9.19;100.00;100142.88;5198556;28;20292;-74
2022/12/26 07:22:09;;;;;;;7.30;2.10;;;;;;;9.23;100.00;100130.53;5199647;28;20025;-74
2022/12/26 07:24:39;;;;;;;3.80;1.85;;;;;;;9.22;100.00;100142.75;5202182;28;20029;-74
2022/12/26 07:27:09;;;;;;;3.28;1.92;;;;;;;9.14;100.00;100146.53;5200125;28;20022;-73
2022/12/26 07:29:40;;;;;;;2.67;1.58;;;;;;;9.02;100.00;100146.97;5204537;28;20501;-74
2022/12/26 07:32:10;;;;;;;2.83;1.90;;;;;;;8.98;100.00;100160.16;5205668;28;20017;-74
2022/12/26 07:34:41;;;;;;;4.82;2.72;;;;;;;8.97;100.00;100164.53;5204793;28;20033;-74
2022/12/26 07:37:11;;;;;;;5.10;3.28;;;;;;;9.00;100.00;100168.78;5204696;28;20025;-75
2022/12/26 07:39:41;;;;;;;5.47;3.03;;;;;;;9.06;100.00;100165.97;5205574;28;20044;-74
2022/12/26 07:42:12;;;;;;;8.05;3.83;;;;;;;9.05;100.00;100159.91;5203513;28;20029;-73
2022/12/26 07:44:42;;;;;;;11.07;6.13;;;;;;;9.07;100.00;100168.50;5204318;28;20133;-73
2022/12/26 07:47:12;;;;;;;12.82;6.72;;;;;;;9.10;100.00;100175.38;5203801;28;20018;-74
2022/12/26 07:49:43;;;;;;;12.98;6.13;;;;;;;9.11;100.00;100177.94;5204396;28;20031;-74
2022/12/26 07:52:13;;;;;;;8.80;5.10;;;;;;;9.09;100.00;100177.13;5202882;28;20125;-74
2022/12/26 07:54:43;;;;;;;8.38;5.03;;;;;;;9.10;100.00;100181.44;5202889;28;20458;-74
2022/12/26 07:57:13;;;;;;;11.38;6.38;;;;;;;9.11;100.00;100180.56;5202678;28;20049;-73
2022/12/26 07:59:44;;;;;;;10.00;6.40;;;;;;;9.12;100.00;100178.78;5204767;28;20021;-74
2022/12/26 08:02:14;;;;;;;11.63;7.10;;;;;;;9.16;100.00;100187.28;5205184;28;20104;-75
2022/12/26 08:04:44;;;;;;;15.88;8.57;;;;;;;9.23;100.00;100185.28;5204268;28;20029;-74
2022/12/26 08:07:15;;;;;;;11.63;7.65;;;;;;;9.20;100.00;100175.00;5202922;28;20013;-74
2022/12/26 08:09:45;;;;;;;12.70;7.97;;;;;;;9.18;100.00;100182.84;5203331;28;20026;-73
2022/12/26 08:12:15;;;;;;;10.85;7.90;;;;;;;9.16;100.00;100189.88;5202062;28;20079;-74
2022/12/26 08:14:46;;;;;;;11.55;7.75;;;;;;;9.31;100.00;100198.91;5202177;28;20065;-73
2022/12/26 08:17:17;;;;;;;11.60;7.78;;;;;;;9.19;100.00;100209.78;5203202;28;20142;-74
2022/12/26 08:19:47;;;;;;;10.90;7.72;;;;;;;9.12;100.00;100197.88;5203128;28;20065;-76
2022/12/26 08:22:17;;;;;;;10.07;7.20;;;;;;;9.12;100.00;100204.84;5203037;28;20108;-74
2022/12/26 08:24:48;;;;;;;11.68;8.18;;;;;;;9.14;100.00;100198.69;5199470;28;20398;-74
2022/12/26 08:27:18;;;;;;;12.35;7.93;;;;;;;9.19;100.00;100188.94;5200991;28;20044;-73
2022/12/26 08:29:49;;;;;;;11.40;8.10;;;;;;;9.12;100.00;100186.59;5201148;28;20052;-74
2022/12/26 08:32:19;;;;;;;11.85;7.68;;;;;;;9.11;100.00;100193.59;5200717;28;20365;-74
2022/12/26 08:34:49;;;;;;;10.88;7.72;;;;;;;9.20;100.00;100198.44;5201189;28;20052;-74
2022/12/26 08:37:19;;;;;;;10.25;7.47;;;;;;;9.17;100.00;100206.38;5201804;28;20017;-74
2022/12/26 08:39:52;;;;;;;10.02;7.40;;;;;;;9.19;100.00;100207.19;5201230;28;20450;-74
2022/12/26 08:42:22;;;;;;;11.68;8.23;;;;;;;9.17;100.00;100209.81;5201428;28;20017;-74
2022/12/26 08:44:52;;;;;;;13.80;8.45;;;;;;;9.17;100.00;100203.78;5201223;28;20048;-74
2022/12/26 08:47:25;;;;;;;11.50;8.70;;;;;;;9.22;100.00;100207.06;5201214;28;20041;-74
2022/12/26 08:49:55;;;;;;;13.65;9.20;;;;;;;9.19;100.00;100209.78;5201845;28;20623;-74
2022/12/26 08:52:26;;;;;;;12.32;8.98;;;;;;;9.23;100.00;100214.84;5208070;28;20026;-73
2022/12/26 08:54:56;;;;;;;11.38;8.18;;;;;;;9.24;100.00;100220.88;5214968;28;20104;-74
2022/12/26 08:57:27;;;;;;;13.23;8.40;;;;;;;9.21;100.00;100218.41;5199465;28;20529;-73
2022/12/26 08:59:57;;;;;;;11.25;7.32;;;;;;;9.27;100.00;100224.25;5206687;28;20036;-73
2022/12/26 09:02:27;;;;;;;9.52;6.60;;;;;;;9.29;100.00;100216.38;5201251;28;20061;-75
2022/12/26 09:04:58;;;;;;;9.48;6.38;;;;;;;9.25;100.00;100218.25;5203059;28;20041;-75
2022/12/26 09:07:28;;;;;;;9.25;6.47;;;;;;;9.29;100.00;100221.59;5206239;28;20079;-74
2022/12/26 09:09:59;;;;;;;9.73;6.43;;;;;;;9.27;100.00;100224.25;5205998;28;20026;-74
2022/12/26 09:12:36;;;;;;;10.52;5.90;;;;;;;9.36;100.00;100228.28;5212083;28;20049;-73
2022/12/26 09:15:06;;;;;;;9.52;5.45;;;;;;;9.29;100.00;100234.63;5210402;28;20649;-73
2022/12/26 09:17:37;;;;;;;8.70;5.13;;;;;;;9.31;100.00;100238.03;5211765;28;20040;-73
2022/12/26 09:20:08;;;;;;;10.02;5.25;;;;;;;9.35;100.00;100239.63;5202760;28;20021;-74
2022/12/26 09:22:50;;;;;;;9.18;5.75;;;;;;;9.31;100.00;100243.25;5201789;28;20025;-74
2022/12/26 09:25:24;;;;;;;8.35;5.47;;;;;;;9.29;100.00;100252.88;5201248;28;20096;-74
2022/12/26 09:27:54;;;;;;;11.65;6.68;;;;;;;9.25;100.00;100256.50;5201306;28;20029;-74
2022/12/26 09:30:25;;;;;;;10.25;5.80;;;;;;;9.23;100.00;100256.56;5201664;28;20044;-74
2022/12/26 09:32:55;;;;;;;8.93;5.30;;;;;;;9.26;100.00;100256.44;5199130;28;20403;-74
2022/12/26 09:35:25;;;;;;;10.43;5.60;;;;;;;9.27;100.00;100259.88;5199003;28;20116;-73
2022/12/26 09:37:56;;;;;;;9.30;4.88;;;;;;;9.29;100.00;100263.31;5198607;28;20471;-74
2022/12/26 09:40:32;;;;;;;10.80;5.88;;;;;;;9.29;100.00;100260.72;5183283;28;20033;-74
2022/12/26 09:43:24;;;;;;;10.75;5.55;;;;;;;9.33;100.00;100250.09;5194729;28;20461;-74
2022/12/26 09:46:06;;;;;;;10.60;5.32;;;;;;;9.34;100.00;100243.13;5198515;28;20037;-74
2022/12/26 09:48:44;;;;;;;12.10;6.80;;;;;;;9.35;100.00;100248.28;5230947;22;20045;-79
2022/12/26 09:51:15;;;;;;;14.70;7.50;;;;;;;9.45;100.00;100269.69;5219744;28;20033;-79
2022/12/26 09:53:46;;;;;;;12.57;7.15;;;;;;;9.49;100.00;100274.72;5220552;28;20029;-79
2022/12/26 09:56:20;;;;;;;10.70;5.43;;;;;;;9.52;100.00;100265.94;5221532;28;20520;-78
2022/12/26 09:58:58;;;;;;;10.07;5.53;;;;;;;9.61;100.00;100255.16;5218912;28;20051;-78
2022/12/26 10:01:33;;;;;;;11.23;5.95;;;;;;;9.61;100.00;100237.75;5222924;28;20568;-78
2022/12/26 10:04:08;;;;;;;12.00;6.18;;;;;;;9.66;100.00;100240.22;5220939;28;20033;-80
2022/12/26 10:06:42;;;;;;;13.05;6.65;;;;;;;9.69;100.00;100247.91;5221534;28;20017;-81
2022/12/26 10:09:48;;;;;;;12.80;6.88;;;;;;;9.83;100.00;100256.91;5220342;28;20028;-79
2022/12/26 10:12:34;;;;;;;9.43;5.68;;;;;;;9.95;100.00;100253.00;5202477;28;20068;-79
2022/12/26 10:15:34;;;;;;;11.93;6.38;;;;;;;9.92;100.00;100253.97;5219090;28;20025;-79
2022/12/26 10:18:23;;;;;;;11.02;6.53;;;;;;;10.00;100.00;100256.28;5219778;28;20033;-79
2022/12/26 10:21:36;;;;;;;12.15;6.28;;;;;;;9.97;100.00;100254.66;5222708;28;20025;-80
2022/12/26 10:24:17;;;;;;;9.48;6.03;;;;;;;10.02;100.00;100254.50;5220620;28;20025;-80
2022/12/26 10:26:51;;;;;;;13.23;7.47;;;;;;;10.05;100.00;100251.78;5220925;28;20498;-80
2022/12/26 10:29:46;;;;;;;10.63;6.83;;;;;;;10.17;100.00;100251.31;5220155;28;20395;-80
2022/12/26 10:32:35;;;;;;;8.80;5.43;;;;;;;10.08;100.00;100256.88;5203586;28;20029;-80
2022/12/26 10:35:24;;;;;;;9.77;6.50;;;;;;;10.02;100.00;100241.47;5219490;28;20331;-78
2022/12/26 10:38:05;;;;;;;9.00;5.68;;;;;;;10.14;100.00;100238.38;5220798;28;20053;-80
2022/12/26 10:40:42;;;;;;;8.60;5.32;;;;;;;10.11;100.00;100241.09;5221080;28;20518;-79
2022/12/26 10:43:32;;;;;;;9.60;6.45;;;;;;;10.17;100.00;100235.63;5218275;28;20331;-80
2022/12/26 10:46:18;;;;;;;8.70;6.32;;;;;;;10.08;100.00;100230.75;5215221;28;20049;-80
2022/12/26 10:48:49;;;;;;;9.73;6.07;;;;;;;10.13;100.00;100240.13;5214733;28;20029;-79
2022/12/26 10:51:19;;;;;;;7.72;5.30;;;;;;;10.16;100.00;100233.94;5221819;28;20025;-81
2022/12/26 10:53:52;;;;;;;8.52;4.85;;;;;;;10.20;100.00;100233.75;5201148;28;20045;-79
2022/12/26 10:56:24;;;;;;;7.75;5.60;;;;;;;10.20;100.00;100241.56;5221300;28;20291;-80
2022/12/26 10:59:01;;;;;;;9.18;5.88;;;;;;;10.21;100.00;100227.63;5221309;28;20029;-80
2022/12/26 11:01:37;;;;;;;8.30;5.90;;;;;;;10.18;100.00;100240.78;5223150;28;20021;-79
2022/12/26 11:04:16;;;;;;;8.68;5.82;;;;;;;10.32;100.00;100242.88;5223710;28;20071;-79
2022/12/26 11:06:51;;;;;;;9.73;5.95;;;;;;;10.28;100.00;100244.75;5218318;28;20423;-81
2022/12/26 11:09:37;;;;;;;7.77;5.10;;;;;;;10.28;100.00;100238.66;5218732;28;20356;-79
2022/12/26 11:12:38;;;;;;;8.55;5.95;;;;;;;10.32;100.00;100240.25;5220169;28;20036;-80
2022/12/26 11:15:36;;;;;;;7.30;4.30;;;;;;;10.38;100.00;100243.44;5217773;28;20036;-79
2022/12/26 11:18:19;;;;;;;7.43;4.28;;;;;;;10.37;100.00;100243.53;5218912;28;20394;-79
2022/12/26 11:20:50;;;;;;;6.35;4.40;;;;;;;10.47;100.00;100244.84;5219695;28;20028;-79
2022/12/26 11:23:22;;;;;;;6.40;4.25;;;;;;;10.49;100.00;100230.81;5219907;28;20031;-79
2022/12/26 11:25:58;;;;;;;8.88;4.28;;;;;;;10.53;100.00;100234.16;5219420;28;20029;-78
2022/12/26 11:28:32;;;;;;;7.72;3.75;;;;;;;10.48;100.00;100230.91;5251222;28;20036;-80
2022/12/26 11:31:06;;;;;;;6.18;3.90;;;;;;;10.62;100.00;100234.63;5220263;28;20456;-80
2022/12/26 11:33:45;;;;;;;7.30;3.60;;;;;;;10.61;100.00;100221.63;5216770;28;20504;-80
2022/12/26 11:36:15;;;;;;;8.07;3.15;;;;;;;10.63;100.00;100222.41;5218283;28;20110;-79
2022/12/26 11:38:56;;;;;;;5.13;3.10;;;;;;;10.70;100.00;100226.47;5220240;28;20037;-79
2022/12/26 11:41:35;;;;;;;7.30;3.97;;;;;;;10.66;100.00;100220.53;5220104;28;20044;-80
2022/12/26 11:44:08;;;;;;;5.00;2.70;;;;;;;10.63;100.00;100219.78;5219652;28;20036;-79
2022/12/26 11:46:43;;;;;;;5.72;3.00;;;;;;;10.72;100.00;100214.19;5219545;28;20801;-78
2022/12/26 11:49:28;;;;;;;6.00;3.10;;;;;;;10.74;100.00;100217.59;5220492;28;20037;-78
2022/12/26 11:52:20;;;;;;;9.45;2.90;;;;;;;10.74;100.00;100217.59;5216686;28;20036;-80
2022/12/26 11:54:51;;;;;;;6.55;2.20;;;;;;;10.92;100.00;100217.69;5219345;28;20518;-80
2022/12/26 11:57:27;;;;;;;3.83;1.90;;;;;;;11.03;100.00;100204.97;5217714;28;20053;-79
2022/12/26 12:00:18;;;;;;;4.25;1.92;;;;;;;11.08;100.00;100203.88;5220295;28;20035;-78
2022/12/26 12:02:49;;;;;;;3.45;1.85;;;;;;;11.04;100.00;100197.06;5219896;28;20272;-79
2022/12/26 12:05:57;;;;;;;7.03;2.67;;;;;;;10.97;100.00;100205.25;5219915;28;20571;-79
2022/12/26 12:08:39;;;;;;;6.32;2.33;;;;;;;11.03;100.00;100205.84;5213527;28;20137;-78
2022/12/26 12:11:20;;;;;;;6.78;2.10;;;;;;;11.04;100.00;100217.13;5217837;28;20037;-79
2022/12/26 12:13:57;;;;;;;5.50;2.03;;;;;;;10.97;100.00;100212.22;5217475;28;20037;-80
2022/12/26 12:16:39;;;;;;;4.30;1.50;;;;;;;11.02;100.00;100207.69;5217922;28;20432;-77
2022/12/26 12:19:28;;;;;;;3.67;1.50;;;;;;;10.95;100.00;100222.78;5218895;28;20472;-77
2022/12/26 12:22:23;;;;;;;2.17;1.33;;;;;;;10.91;100.00;100228.19;5216801;28;20119;-78
2022/12/26 12:25:15;;;;;;;4.18;1.70;;;;;;;10.94;100.00;100223.69;5218332;28;20401;-79
2022/12/26 12:27:53;;;;;;;2.53;1.48;;;;;;;10.96;100.00;100223.59;5214958;28;20509;-76
2022/12/26 12:30:49;;;;;;;6.30;1.23;;;;;;;10.90;100.00;100221.25;5219162;28;20037;-77
2022/12/26 12:33:28;;;;;;;3.17;1.30;;;;;;;10.95;100.00;100217.53;5220194;28;20044;-77
2022/12/26 12:36:05;;;;;;;3.65;1.38;;;;;;;10.84;100.00;100214.53;5219143;28;20063;-78
2022/12/26 12:38:53;;;;;;;4.15;1.73;;;;;;;10.87;100.00;100203.09;5218098;28;20045;-77
2022/12/26 12:42:03;;;;;;;5.55;1.90;;;;;;;10.82;100.00;100189.38;5219844;28;20064;-78
2022/12/26 12:45:26;;;;;;;5.45;2.15;;;;;;;10.90;100.00;100198.59;5216464;28;20049;-77
2022/12/26 12:48:27;;;;;;;4.97;1.80;;;;;;;10.92;100.00;100201.13;5175010;28;20131;-77
2022/12/26 12:51:08;;;;;;;3.55;2.10;;;;;;;10.98;100.00;100195.63;5218243;28;20025;-79
2022/12/26 12:54:04;;;;;;;4.22;1.67;;;;;;;11.06;100.00;100194.38;5219654;28;20059;-79
2022/12/26 12:56:47;;;;;;;3.95;1.92;;;;;;;11.04;100.00;100196.22;5172261;28;20053;-77
2022/12/26 12:59:34;;;;;;;3.03;1.40;;;;;;;11.11;100.00;100192.44;5217580;28;20604;-79
2022/12/26 13:02:16;;;;;;;4.60;1.50;;;;;;;11.04;100.00;100190.97;5219449;28;20506;-79
2022/12/26 13:04:53;;;;;;;2.97;1.48;;;;;;;11.01;100.00;100185.88;5219295;28;20230;-77
2022/12/26 13:07:31;;;;;;;2.92;1.50;;;;;;;11.01;100.00;100191.13;5218801;28;20021;-77
2022/12/26 13:10:10;;;;;;;3.85;1.70;;;;;;;11.03;100.00;100182.31;5216293;28;20032;-77
2022/12/26 13:12:43;;;;;;;4.47;1.80;;;;;;;10.95;100.00;100178.31;5219307;28;20319;-77
2022/12/26 13:15:29;;;;;;;3.88;1.38;;;;;;;10.98;100.00;100179.94;5217746;28;20037;-79
2022/12/26 13:18:16;;;;;;;2.80;1.30;;;;;;;11.04;100.00;100176.16;5216949;28;20466;-78
2022/12/26 13:20:55;;;;;;;7.00;1.88;;;;;;;10.96;100.00;100169.56;5218418;28;20041;-79
2022/12/26 13:26:29;;;;;;;4.30;1.40;;;;;;;10.96;100.00;100176.53;5218473;28;20531;-77
2022/12/26 13:29:31;;;;;;;4.63;2.13;;;;;;;10.96;100.00;100179.16;5216621;28;20052;-78
2022/12/26 13:32:03;;;;;;;4.15;1.58;;;;;;;10.94;100.00;100168.78;5216650;28;20402;-78
2022/12/26 13:34:34;;;;;;;3.85;1.33;;;;;;;11.01;100.00;100179.84;5219579;28;20048;-77
2022/12/26 13:37:05;;;;;;;5.22;1.60;;;;;;;11.00;100.00;100181.59;5216818;28;20432;-78
2022/12/26 13:39:38;;;;;;;7.53;1.90;;;;;;;10.92;100.00;100180.22;5217647;28;20705;-77
2022/12/26 13:45:41;;;;;;;4.22;1.40;;;;;;;10.73;100.00;100174.06;5215798;28;20083;-77
2022/12/26 13:48:14;;;;;;;8.15;2.55;;;;;;;10.63;100.00;100172.75;5216594;28;20386;-77
2022/12/26 13:50:48;;;;;;;7.70;2.50;;;;;;;10.63;100.00;100177.97;5217366;28;20174;-79
2022/12/26 13:53:24;;;;;;;3.97;1.60;;;;;;;10.67;100.00;100179.56;5213884;28;20525;-78
2022/12/26 13:56:02;;;;;;;4.38;1.50;;;;;;;10.62;100.00;100173.66;5214152;28;20053;-79
2022/12/26 13:58:47;;;;;;;5.35;1.35;;;;;;;10.59;100.00;100171.19;5216810;28;20035;-78
2022/12/26 14:01:45;;;;;;;6.07;1.87;;;;;;;10.56;100.00;100176.56;5217838;28;20477;-79
2022/12/26 14:04:30;;;;;;;6.55;1.48;;;;;;;10.58;100.00;100178.19;5217100;28;20482;-78
2022/12/26 14:07:23;;;;;;;6.80;0.98;;;;;;;10.68;100.00;100168.22;5208207;28;20041;-78
2022/12/26 14:10:08;;;;;;;2.33;1.00;;;;;;;10.77;100.00;100170.41;5212765;28;20068;-75